Time;durP1;ratioP1;P1;durP2;ratioP2;P2;SDS_P1;SDS_P2;PMS_P1;PMS_P2;Temp;Humidity;BMP_temperature;BMP_pressure;BME280_temperature;BME280_humidity;BME280_pressure;Samples;Min_cycle;Max_cycle;Signal;HPM_P1;HPM_P2
2023/09/13 00:01:13;;;;;;;6.30;5.70;;;;;;;26.76;45.84;97269.16;5021204;28;20223;-70
2023/09/13 00:03:38;;;;;;;7.43;5.40;;;;;;;26.72;46.21;97279.59;5047225;28;20313;-70
2023/09/13 00:06:04;;;;;;;8.13;5.60;;;;;;;26.76;46.34;97280.72;5039164;28;20632;-72
2023/09/13 00:08:29;;;;;;;5.90;5.40;;;;;;;26.82;46.28;97281.59;5028144;28;20774;-72
2023/09/13 00:11:04;;;;;;;5.80;5.17;;;;;;;26.83;46.49;97277.84;5040037;28;20226;-71
2023/09/13 00:13:31;;;;;;;8.77;5.67;;;;;;;26.82;46.90;97276.22;5025625;28;20209;-69
2023/09/13 00:15:57;;;;;;;7.57;5.00;;;;;;;26.87;47.18;97275.44;5034282;28;20430;-71
2023/09/13 00:18:22;;;;;;;6.10;5.50;;;;;;;26.87;47.80;97287.03;5012037;28;20447;-73
2023/09/13 00:20:51;;;;;;;11.63;5.20;;;;;;;26.80;47.96;97289.09;5043872;28;20258;-71
2023/09/13 00:23:17;;;;;;;6.37;5.57;;;;;;;26.74;48.63;97293.59;5038186;28;20187;-70
2023/09/13 00:25:42;;;;;;;7.70;5.13;;;;;;;26.72;49.20;97287.66;5027348;28;20568;-72
2023/09/13 00:28:07;;;;;;;10.77;5.90;;;;;;;26.71;49.12;97291.44;5033500;28;20342;-72
2023/09/13 00:30:33;;;;;;;7.77;5.50;;;;;;;26.73;49.81;97283.91;5029457;28;20199;-71
2023/09/13 00:32:58;;;;;;;7.63;5.67;;;;;;;26.67;50.55;97277.66;5028745;28;20198;-71
2023/09/13 00:35:24;;;;;;;9.13;5.53;;;;;;;26.65;50.84;97273.63;5037801;28;20187;-71
2023/09/13 00:37:50;;;;;;;5.70;4.97;;;;;;;26.56;51.12;97280.53;5028522;28;20184;-71
2023/09/13 00:40:16;;;;;;;9.10;5.67;;;;;;;26.56;52.49;97280.53;5028112;28;20187;-71
2023/09/13 00:42:42;;;;;;;7.80;6.10;;;;;;;26.47;53.20;97270.22;5036123;28;20433;-72
2023/09/13 00:45:07;;;;;;;8.93;6.53;;;;;;;26.42;53.80;97267.50;5027123;28;21136;-71
2023/09/13 00:47:33;;;;;;;14.40;6.17;;;;;;;26.33;54.06;97251.03;5040489;28;20948;-72
2023/09/13 00:49:58;;;;;;;12.20;6.70;;;;;;;26.28;53.83;97231.38;5029562;28;20502;-72
2023/09/13 00:52:24;;;;;;;8.70;6.50;;;;;;;26.24;54.01;97232.91;5033879;28;20195;-72
2023/09/13 00:54:50;;;;;;;10.53;6.37;;;;;;;26.21;54.58;97218.94;5013429;28;20722;-72
2023/09/13 00:57:15;;;;;;;16.03;6.57;;;;;;;26.20;54.76;97211.97;5010327;28;20188;-72
2023/09/13 00:59:41;;;;;;;13.77;7.30;;;;;;;26.14;55.33;97212.97;5043242;28;20210;-72
2023/09/13 01:02:07;;;;;;;9.53;6.60;;;;;;;26.00;55.56;97195.59;5024094;28;20237;-72
2023/09/13 01:04:38;;;;;;;10.83;7.50;;;;;;;25.87;56.31;97178.81;5036911;28;20664;-71
2023/09/13 01:07:04;;;;;;;7.83;6.53;;;;;;;25.77;55.99;97182.19;5031781;28;20294;-72
2023/09/13 01:09:29;;;;;;;10.57;7.00;;;;;;;25.79;56.28;97187.34;5021876;28;20449;-72
2023/09/13 01:11:55;;;;;;;12.00;6.00;;;;;;;25.77;56.94;97190.25;5021248;28;20423;-72
2023/09/13 01:14:21;;;;;;;9.70;7.03;;;;;;;25.79;56.87;97187.34;5034597;28;20187;-73
2023/09/13 01:17:12;;;;;;;9.20;6.30;;;;;;;25.72;56.93;97198.25;5035463;28;20207;-72
2023/09/13 01:20:12;;;;;;;13.00;6.40;;;;;;;25.72;57.33;97209.00;5019900;28;20482;-71
2023/09/13 01:22:59;;;;;;;8.93;6.40;;;;;;;25.68;57.00;97225.84;5032906;28;20487;-71
2023/09/13 01:25:40;;;;;;;6.97;6.27;;;;;;;25.55;57.92;97225.16;5041367;28;20462;-71
2023/09/13 01:28:34;;;;;;;10.13;6.63;;;;;;;25.49;57.72;97220.78;5022732;28;20491;-71
2023/09/13 01:31:02;;;;;;;9.27;6.33;;;;;;;25.53;58.17;97231.81;5036142;28;20422;-72
2023/09/13 01:33:28;;;;;;;7.90;6.40;;;;;;;25.55;58.38;97237.75;5013160;28;20864;-72
2023/09/13 01:35:53;;;;;;;7.17;6.47;;;;;;;25.55;58.14;97227.84;5033617;28;20419;-72
2023/09/13 01:38:19;;;;;;;7.07;6.40;;;;;;;25.51;58.74;97234.75;5038771;28;20750;-72
2023/09/13 01:40:46;;;;;;;9.10;6.60;;;;;;;25.54;58.32;97230.75;5014121;28;20191;-71
2023/09/13 01:43:12;;;;;;;7.53;5.80;;;;;;;25.50;58.20;97227.75;5035146;28;20187;-72
2023/09/13 01:45:38;;;;;;;10.40;6.20;;;;;;;25.46;58.19;97232.00;5024330;28;20461;-71
2023/09/13 01:48:04;;;;;;;6.47;5.83;;;;;;;25.44;58.51;97228.75;5025441;28;20456;-72
2023/09/13 01:50:30;;;;;;;9.60;6.37;;;;;;;25.42;58.45;97236.25;5025891;28;20297;-70
2023/09/13 01:52:56;;;;;;;8.00;6.17;;;;;;;25.47;58.61;97232.81;5038676;28;20242;-72
2023/09/13 01:55:22;;;;;;;11.40;5.20;;;;;;;25.44;58.46;97229.56;5041326;28;20422;-72
2023/09/13 01:57:47;;;;;;;8.33;6.03;;;;;;;25.34;58.72;97225.88;5048133;28;20214;-72
2023/09/13 02:00:13;;;;;;;8.23;5.50;;;;;;;25.28;58.21;97222.34;5038037;28;20243;-72
2023/09/13 02:02:38;;;;;;;7.23;5.47;;;;;;;25.24;57.92;97213.97;5034202;28;20685;-71
2023/09/13 02:05:04;;;;;;;5.80;5.30;;;;;;;25.23;57.66;97223.06;5030137;28;20509;-71
2023/09/13 02:07:30;;;;;;;6.93;5.40;;;;;;;25.18;57.95;97220.34;5026327;28;20190;-71
2023/09/13 02:09:55;;;;;;;7.17;5.10;;;;;;;25.18;57.78;97231.06;5035860;28;20854;-71
2023/09/13 02:12:20;;;;;;;8.27;5.20;;;;;;;25.15;57.49;97228.88;5039413;28;20267;-71
2023/09/13 02:14:46;;;;;;;6.80;5.30;;;;;;;25.22;58.18;97224.13;5034813;28;20186;-71
2023/09/13 02:17:11;;;;;;;7.10;6.40;;;;;;;25.32;58.29;97220.00;5024393;28;20272;-71
2023/09/13 02:19:37;;;;;;;7.53;5.97;;;;;;;25.37;57.90;97212.81;5036309;28;20776;-71
2023/09/13 02:22:02;;;;;;;5.63;4.70;;;;;;;25.36;58.23;97205.84;5034249;28;20746;-71
2023/09/13 02:24:28;;;;;;;9.77;6.23;;;;;;;25.29;58.26;97216.75;5033525;28;20749;-71
2023/09/13 02:26:57;;;;;;;9.60;5.60;;;;;;;25.16;58.55;97211.72;5014880;28;20730;-71
2023/09/13 02:29:23;;;;;;;7.30;6.20;;;;;;;25.10;59.27;97204.66;5041983;28;20660;-71
2023/09/13 02:31:48;;;;;;;6.93;6.23;;;;;;;25.08;59.25;97199.56;5042608;28;20496;-71
2023/09/13 02:34:14;;;;;;;9.07;6.30;;;;;;;25.06;59.00;97203.53;5035557;28;20203;-73
2023/09/13 02:36:39;;;;;;;8.50;5.93;;;;;;;25.03;58.97;97206.72;5046287;28;20190;-72
2023/09/13 02:39:05;;;;;;;6.30;5.70;;;;;;;24.97;59.42;97217.34;5033625;28;20291;-71
2023/09/13 02:41:30;;;;;;;7.07;5.80;;;;;;;24.97;59.29;97228.06;5032827;28;20246;-72
2023/09/13 02:43:56;;;;;;;9.23;5.83;;;;;;;24.97;59.35;97252.19;5036764;28;20186;-73
2023/09/13 02:46:21;;;;;;;6.90;5.90;;;;;;;24.91;59.29;97263.06;5042410;28;20218;-71
2023/09/13 02:48:46;;;;;;;9.67;6.17;;;;;;;24.89;59.60;97271.34;5029549;28;20292;-72
2023/09/13 02:51:13;;;;;;;5.83;5.20;;;;;;;24.90;59.38;97266.81;5030282;28;20195;-72
2023/09/13 02:53:38;;;;;;;6.70;6.00;;;;;;;24.88;59.73;97266.25;5037890;28;20212;-72
2023/09/13 02:56:05;;;;;;;7.50;5.83;;;;;;;24.85;59.61;97259.50;5035047;28;20888;-71
2023/09/13 02:58:31;;;;;;;7.60;5.80;;;;;;;24.83;60.43;97256.25;5022724;28;20294;-73
2023/09/13 03:00:57;;;;;;;5.83;5.20;;;;;;;24.90;60.00;97264.94;5036337;28;20540;-72
2023/09/13 03:03:22;;;;;;;9.47;5.87;;;;;;;24.91;59.47;97273.78;5032520;28;20188;-71
2023/09/13 03:05:48;;;;;;;8.73;6.13;;;;;;;24.88;59.73;97269.72;5031445;28;20453;-71
2023/09/13 03:08:13;;;;;;;9.13;5.53;;;;;;;24.84;60.18;97277.47;5044821;28;20210;-71
2023/09/13 03:10:39;;;;;;;6.33;5.73;;;;;;;24.90;59.78;97267.63;5006855;28;20188;-72
2023/09/13 03:13:04;;;;;;;8.47;5.60;;;;;;;24.91;59.69;97263.91;5026384;28;20218;-71
2023/09/13 03:15:33;;;;;;;6.33;5.73;;;;;;;24.94;59.70;97263.41;5022122;28;20184;-71
2023/09/13 03:17:58;;;;;;;6.60;6.00;;;;;;;24.97;59.70;97268.25;5022193;28;20190;-71
2023/09/13 03:20:24;;;;;;;10.43;5.50;;;;;;;25.03;59.56;97263.00;5039459;28;20434;-72
2023/09/13 03:22:49;;;;;;;8.50;6.20;;;;;;;25.03;59.11;97271.03;5028408;28;20187;-71
2023/09/13 03:25:15;;;;;;;7.10;6.40;;;;;;;25.04;59.45;97281.50;5041022;28;20281;-71
2023/09/13 03:27:40;;;;;;;6.37;5.70;;;;;;;25.02;59.28;97280.13;5030025;28;20195;-71
2023/09/13 03:30:06;;;;;;;7.57;5.40;;;;;;;24.97;59.20;97287.03;5028035;28;20250;-72
2023/09/13 03:32:31;;;;;;;8.73;6.00;;;;;;;24.91;59.58;97277.28;5031569;28;20250;-71
2023/09/13 03:34:57;;;;;;;9.17;5.67;;;;;;;24.88;59.49;97276.97;5031487;28;20184;-72
2023/09/13 03:37:22;;;;;;;7.87;5.97;;;;;;;24.78;59.86;97269.56;5033620;28;20187;-71
2023/09/13 03:39:48;;;;;;;7.20;6.20;;;;;;;24.79;60.44;97282.72;5041246;28;20202;-71
2023/09/13 03:42:13;;;;;;;9.13;7.10;;;;;;;24.85;60.29;97275.56;4974350;28;20194;-71
2023/09/13 03:44:39;;;;;;;7.60;5.83;;;;;;;24.87;60.15;97278.81;4994394;28;20274;-71
2023/09/13 03:47:04;;;;;;;7.43;6.30;;;;;;;24.89;59.66;97282.09;5039896;28;20325;-70
2023/09/13 03:49:29;;;;;;;7.60;5.93;;;;;;;24.77;59.63;97289.38;4990803;28;20269;-71
2023/09/13 03:51:55;;;;;;;7.10;6.40;;;;;;;24.67;60.32;97287.31;5037922;28;20203;-72
2023/09/13 03:54:21;;;;;;;7.90;6.47;;;;;;;24.59;60.43;97282.34;5032122;28;20602;-71
2023/09/13 03:56:47;;;;;;;12.17;6.70;;;;;;;24.57;60.91;97271.88;5010335;28;20191;-71
2023/09/13 03:59:12;;;;;;;6.80;6.10;;;;;;;24.53;61.05;97270.72;5033420;28;20450;-72
2023/09/13 04:01:38;;;;;;;6.97;6.27;;;;;;;24.56;61.11;97270.25;5031426;28;20196;-73
2023/09/13 04:04:03;;;;;;;9.27;7.17;;;;;;;24.53;61.15;97262.69;5027199;28;20202;-70
2023/09/13 04:06:29;;;;;;;6.50;5.90;;;;;;;24.58;61.15;97275.34;5023898;28;20207;-71
2023/09/13 04:08:54;;;;;;;9.03;6.80;;;;;;;24.63;60.80;97273.59;5027547;28;20808;-72
2023/09/13 04:11:20;;;;;;;6.90;6.20;;;;;;;24.63;60.49;97275.47;5033821;28;20230;-72
2023/09/13 04:13:45;;;;;;;7.50;6.70;;;;;;;24.64;60.61;97280.56;5036207;28;20180;-72
2023/09/13 04:16:14;;;;;;;7.00;6.23;;;;;;;24.63;60.64;97278.94;5034554;28;20281;-73
2023/09/13 04:18:39;;;;;;;6.93;6.03;;;;;;;24.66;60.82;97277.63;5037169;28;20704;-71
2023/09/13 04:21:05;;;;;;;10.43;6.60;;;;;;;24.62;60.65;97271.16;5035084;28;20452;-73
2023/09/13 04:23:30;;;;;;;6.60;6.00;;;;;;;24.54;60.47;97278.50;5035397;28;20202;-72
2023/09/13 04:25:55;;;;;;;7.90;6.00;;;;;;;24.51;60.31;97276.31;5015348;28;20225;-72
2023/09/13 04:28:21;;;;;;;6.90;6.10;;;;;;;24.50;60.58;97273.88;5030575;28;20290;-72
2023/09/13 04:30:47;;;;;;;9.00;6.67;;;;;;;24.38;60.52;97280.09;5035637;28;20190;-72
2023/09/13 04:33:12;;;;;;;6.53;5.90;;;;;;;24.34;60.97;97289.66;5026371;28;20529;-73
2023/09/13 04:35:38;;;;;;;8.03;5.90;;;;;;;24.33;61.09;97290.72;5032457;28;20187;-71
2023/09/13 04:38:03;;;;;;;7.20;6.50;;;;;;;24.37;61.36;97280.34;5014164;28;20188;-72
2023/09/13 04:40:29;;;;;;;7.60;6.30;;;;;;;24.42;60.99;97293.03;5030216;28;20603;-72
2023/09/13 04:43:15;;;;;;;9.03;6.07;;;;;;;24.47;60.91;97295.78;5014714;28;20679;-74
2023/09/13 04:45:41;;;;;;;6.83;6.20;;;;;;;24.51;60.99;97308.44;5018843;28;20218;-71
2023/09/13 04:48:06;;;;;;;7.33;5.90;;;;;;;24.55;60.88;97308.81;5029027;28;20813;-73
2023/09/13 04:50:32;;;;;;;6.83;6.13;;;;;;;24.61;60.62;97317.75;5030569;28;20326;-73
2023/09/13 04:52:57;;;;;;;6.80;6.00;;;;;;;24.65;60.68;97322.38;5037346;28;20190;-73
2023/09/13 04:55:23;;;;;;;8.03;6.83;;;;;;;24.67;60.48;97322.97;5039727;28;20715;-72
2023/09/13 04:57:49;;;;;;;7.03;6.10;;;;;;;24.64;60.43;97323.44;5042013;28;20276;-73
2023/09/13 05:00:16;;;;;;;6.80;6.10;;;;;;;24.52;60.32;97320.78;5036147;28;20215;-74
2023/09/13 05:02:41;;;;;;;6.83;6.23;;;;;;;24.48;60.65;97324.19;5034883;28;20187;-73
2023/09/13 05:05:07;;;;;;;9.57;7.10;;;;;;;24.47;60.66;97319.88;5028896;28;20780;-72
2023/09/13 05:07:33;;;;;;;7.07;6.00;;;;;;;24.47;60.78;97319.88;5030840;28;20230;-71
2023/09/13 05:09:58;;;;;;;8.10;6.23;;;;;;;24.50;60.63;97314.88;5030604;28;20244;-72
2023/09/13 05:12:24;;;;;;;7.90;7.10;;;;;;;24.51;60.39;97321.03;5039239;28;20210;-70
2023/09/13 05:14:49;;;;;;;11.00;6.73;;;;;;;24.49;60.52;97317.78;5039076;28;20190;-72
2023/09/13 05:17:15;;;;;;;8.00;7.20;;;;;;;24.50;60.78;97328.28;5018012;28;20656;-73
2023/09/13 05:19:40;;;;;;;9.77;6.03;;;;;;;24.41;60.27;97323.53;5037932;28;20341;-72
2023/09/13 05:22:06;;;;;;;7.43;6.67;;;;;;;24.38;61.15;97332.88;5032533;28;20245;-72
2023/09/13 05:24:31;;;;;;;8.30;6.90;;;;;;;24.29;61.27;97327.06;5032597;28;20198;-73
2023/09/13 05:26:56;;;;;;;8.07;6.20;;;;;;;24.36;61.32;97335.75;5041613;28;20235;-72
2023/09/13 05:29:22;;;;;;;6.90;6.20;;;;;;;24.38;61.32;97339.03;5034770;28;20739;-72
2023/09/13 05:31:48;;;;;;;7.60;6.80;;;;;;;24.41;61.58;97339.59;5034539;28;20209;-71
2023/09/13 05:34:14;;;;;;;10.47;6.53;;;;;;;24.40;61.59;97346.81;5037365;28;20219;-73
2023/09/13 05:36:41;;;;;;;8.23;7.10;;;;;;;24.44;61.81;97350.66;5033182;28;20434;-70
2023/09/13 05:39:07;;;;;;;7.77;6.87;;;;;;;24.44;61.43;97355.19;5040809;28;20266;-73
2023/09/13 05:41:32;;;;;;;11.63;7.03;;;;;;;24.47;61.52;97355.53;5035789;28;20517;-70
2023/09/13 05:43:58;;;;;;;8.70;7.90;;;;;;;24.49;61.66;97348.06;5038093;28;20425;-73
2023/09/13 05:46:23;;;;;;;8.50;7.67;;;;;;;24.51;61.59;97345.16;5041419;28;20224;-73
2023/09/13 05:48:49;;;;;;;8.40;7.30;;;;;;;24.45;61.59;97348.75;5044594;28;20211;-71
2023/09/13 05:51:14;;;;;;;7.83;7.03;;;;;;;24.50;61.71;97344.34;5041872;28;20587;-72
2023/09/13 05:53:40;;;;;;;7.70;6.73;;;;;;;24.54;61.43;97337.44;5033944;28;20191;-70
2023/09/13 05:56:05;;;;;;;10.57;5.97;;;;;;;24.63;61.51;97345.13;5037003;28;20233;-71
2023/09/13 05:58:30;;;;;;;9.20;6.53;;;;;;;24.67;61.44;97352.44;5030293;28;20290;-71
2023/09/13 06:00:57;;;;;;;9.57;7.23;;;;;;;24.69;60.93;97355.72;5014686;28;20210;-71
2023/09/13 06:03:22;;;;;;;6.97;5.90;;;;;;;24.66;60.40;97356.16;5017850;28;20306;-70
2023/09/13 06:05:51;;;;;;;7.00;5.30;;;;;;;24.68;59.86;97359.41;5033526;28;20991;-71
2023/09/13 06:08:17;;;;;;;6.33;5.03;;;;;;;24.73;59.19;97358.72;5040886;28;20210;-72
2023/09/13 06:10:42;;;;;;;6.60;5.10;;;;;;;24.77;59.13;97364.41;5017233;28;20515;-71
2023/09/13 06:13:08;;;;;;;10.43;5.70;;;;;;;24.81;59.15;97373.59;5041665;28;20957;-71
2023/09/13 06:15:33;;;;;;;5.80;5.20;;;;;;;24.83;58.93;97374.16;5037019;28;20574;-71
2023/09/13 06:18:01;;;;;;;10.37;6.30;;;;;;;24.88;58.88;97386.84;5014151;28;20217;-70
2023/09/13 06:20:27;;;;;;;18.63;5.87;;;;;;;24.90;59.39;97387.41;4986016;28;20192;-71
2023/09/13 06:22:54;;;;;;;7.37;5.40;;;;;;;24.88;58.90;97392.22;5012785;28;20475;-70
2023/09/13 06:25:19;;;;;;;6.13;4.60;;;;;;;24.74;57.88;97405.91;5029292;28;20200;-70
2023/09/13 06:27:45;;;;;;;7.70;4.63;;;;;;;24.72;58.08;97409.84;5031597;28;20445;-71
2023/09/13 06:30:10;;;;;;;7.70;4.90;;;;;;;24.72;57.87;97409.84;5030313;28;20326;-70
2023/09/13 06:32:36;;;;;;;10.43;4.50;;;;;;;24.65;57.06;97410.78;5032035;28;20330;-71
2023/09/13 06:35:01;;;;;;;7.13;4.90;;;;;;;24.63;56.26;97406.72;5018435;28;20966;-71
2023/09/13 06:37:27;;;;;;;6.70;4.90;;;;;;;24.61;56.95;97409.63;5039822;28;20275;-72
2023/09/13 06:39:53;;;;;;;5.10;4.60;;;;;;;24.65;56.67;97415.31;5014347;28;20327;-71
2023/09/13 06:42:18;;;;;;;6.33;4.70;;;;;;;24.73;56.73;97415.00;5036223;28;20302;-72
2023/09/13 06:44:44;;;;;;;5.40;4.87;;;;;;;24.77;56.31;97408.09;5030569;28;20542;-72
2023/09/13 06:47:09;;;;;;;13.23;5.60;;;;;;;24.80;56.55;97412.97;5045651;28;20218;-71
2023/09/13 06:49:35;;;;;;;5.73;5.23;;;;;;;24.76;56.41;97411.00;5031901;28;20295;-70
2023/09/13 06:52:01;;;;;;;6.00;5.50;;;;;;;24.82;56.37;97412.75;5039061;28;20183;-70
2023/09/13 06:54:27;;;;;;;5.20;4.70;;;;;;;24.90;56.15;97417.72;5028316;28;20200;-71
2023/09/13 06:56:52;;;;;;;5.00;4.60;;;;;;;24.94;56.61;97429.59;5038275;28;20507;-71
2023/09/13 06:59:19;;;;;;;7.33;4.77;;;;;;;25.03;55.85;97421.94;5031583;28;20250;-72
2023/09/13 07:01:45;;;;;;;5.50;5.00;;;;;;;25.11;55.86;97423.44;5030003;28;20238;-71
2023/09/13 07:04:11;;;;;;;5.30;4.10;;;;;;;25.10;56.00;97427.16;5014423;28;20517;-71
2023/09/13 07:06:36;;;;;;;8.13;5.40;;;;;;;25.16;56.48;97428.91;5035040;28;20454;-72
2023/09/13 07:09:03;;;;;;;7.77;5.20;;;;;;;25.23;57.06;97426.88;5038781;28;20289;-71
2023/09/13 07:11:29;;;;;;;10.67;5.00;;;;;;;25.23;56.88;97429.56;5033602;28;20194;-70
2023/09/13 07:13:54;;;;;;;6.43;4.80;;;;;;;25.26;56.50;97431.75;5032111;28;20435;-71
2023/09/13 07:16:19;;;;;;;5.03;4.57;;;;;;;25.30;56.24;97435.59;5026453;28;20187;-71
2023/09/13 07:18:45;;;;;;;5.63;5.00;;;;;;;25.32;55.60;97431.84;5031066;28;20637;-71
2023/09/13 07:21:10;;;;;;;7.57;4.80;;;;;;;25.25;55.82;97422.06;5038770;28;20289;-70
2023/09/13 07:23:36;;;;;;;7.80;5.47;;;;;;;25.23;56.45;97429.56;5035218;28;20314;-71
2023/09/13 07:26:02;;;;;;;6.90;4.93;;;;;;;25.05;56.24;97421.72;4995896;28;20218;-71
2023/09/13 07:28:28;;;;;;;9.43;5.47;;;;;;;25.07;56.73;97433.84;5035596;28;20218;-71
2023/09/13 07:30:54;;;;;;;6.10;5.03;;;;;;;25.08;56.83;97446.19;5034796;28;20425;-72
2023/09/13 07:33:19;;;;;;;5.23;4.73;;;;;;;25.06;56.04;97437.56;5033906;28;20191;-73
2023/09/13 07:35:45;;;;;;;6.90;5.70;;;;;;;25.09;55.86;97452.34;5027827;28;20199;-72
2023/09/13 07:38:10;;;;;;;6.30;4.97;;;;;;;25.09;56.20;97445.13;5032197;28;20199;-72
2023/09/13 07:40:39;;;;;;;5.20;4.70;;;;;;;25.11;56.82;97444.88;5029837;28;20262;-72
2023/09/13 07:43:07;;;;;;;16.47;14.33;;;;;;;25.14;57.57;97450.56;5031399;28;20660;-72
2023/09/13 07:45:34;;;;;;;28.10;22.40;;;;;;;25.15;58.23;97452.19;5017825;28;20457;-71
2023/09/13 07:48:00;;;;;;;19.20;16.37;;;;;;;25.22;58.48;97460.09;5041778;28;20433;-72
2023/09/13 07:50:40;;;;;;;6.20;5.70;;;;;;;25.27;58.60;97454.84;5032508;28;20843;-71
2023/09/13 07:53:12;;;;;;;13.30;6.67;;;;;;;25.25;59.63;97462.31;5024603;28;20434;-73
2023/09/13 07:55:38;;;;;;;6.83;5.27;;;;;;;25.19;59.67;97457.91;5029864;28;20484;-73
2023/09/13 07:58:05;;;;;;;6.13;5.50;;;;;;;25.15;60.01;97457.56;5027156;28;20442;-72
2023/09/13 08:00:30;;;;;;;12.57;9.60;;;;;;;25.21;60.40;97463.03;5009331;28;20450;-71
2023/09/13 08:02:58;;;;;;;9.23;5.63;;;;;;;25.16;59.77;97458.41;5030815;28;20795;-72
2023/09/13 08:05:23;;;;;;;17.53;10.00;;;;;;;25.21;58.74;97466.50;5027341;28;20196;-73
2023/09/13 08:07:49;;;;;;;8.50;4.80;;;;;;;25.20;58.29;97458.72;5043157;28;20497;-73
2023/09/13 08:10:14;;;;;;;5.80;5.40;;;;;;;25.27;59.23;97468.25;5034468;28;20276;-71
2023/09/13 08:12:40;;;;;;;9.07;6.50;;;;;;;25.35;59.25;97466.22;5028074;28;20195;-73
2023/09/13 08:15:06;;;;;;;8.17;7.37;;;;;;;25.33;58.39;97473.72;5012508;28;20722;-72
2023/09/13 08:17:33;;;;;;;14.37;11.83;;;;;;;25.39;58.11;97480.78;5030800;28;20462;-71
2023/09/13 08:19:58;;;;;;;10.73;8.50;;;;;;;25.44;57.22;97475.53;5016444;28;20461;-72
2023/09/13 08:22:24;;;;;;;9.00;8.07;;;;;;;25.49;57.38;97472.94;5037080;28;20855;-73
2023/09/13 08:24:49;;;;;;;16.43;14.73;;;;;;;25.51;56.09;97472.72;5020193;28;20538;-74
2023/09/13 08:27:15;;;;;;;10.07;8.10;;;;;;;25.58;56.09;97471.47;5027644;28;20332;-74
2023/09/13 08:29:40;;;;;;;19.27;17.27;;;;;;;25.67;56.05;97481.81;5037588;28;20352;-72
2023/09/13 08:32:06;;;;;;;8.70;7.90;;;;;;;25.72;55.70;97487.25;5028521;28;20197;-75
2023/09/13 08:34:33;;;;;;;11.13;9.17;;;;;;;25.70;55.80;97484.03;5027100;28;20640;-74
2023/09/13 08:36:58;;;;;;;11.40;7.57;;;;;;;25.69;55.98;97488.56;5034609;28;20195;-73
2023/09/13 08:39:24;;;;;;;10.10;8.47;;;;;;;25.67;55.87;97501.41;5029932;28;20438;-74
2023/09/13 08:41:52;;;;;;;33.77;28.50;;;;;;;25.69;55.83;97501.97;5035506;28;20195;-73
2023/09/13 08:44:22;;;;;;;21.60;19.37;;;;;;;25.70;55.41;97506.28;5033406;28;20194;-72
2023/09/13 08:46:55;;;;;;;11.43;9.67;;;;;;;25.64;54.84;97507.28;5032699;28;21001;-74
2023/09/13 08:49:21;;;;;;;16.83;10.30;;;;;;;25.61;54.62;97511.25;5033572;28;20481;-74
2023/09/13 08:51:47;;;;;;;9.37;8.47;;;;;;;25.62;54.65;97512.06;5032168;28;20462;-71
2023/09/13 08:54:13;;;;;;;15.07;13.47;;;;;;;25.67;54.89;97506.78;5034410;28;20194;-73
2023/09/13 08:56:42;;;;;;;5.50;5.03;;;;;;;25.65;54.66;97508.88;5024693;28;20418;-73
2023/09/13 08:59:08;;;;;;;7.33;4.60;;;;;;;25.61;55.27;97519.28;5028205;28;20465;-73
2023/09/13 09:01:33;;;;;;;5.80;5.30;;;;;;;25.59;55.71;97515.22;5032893;28;20531;-74
2023/09/13 09:04:01;;;;;;;12.53;6.27;;;;;;;25.60;55.31;97514.97;5029284;28;20192;-73
2023/09/13 09:06:27;;;;;;;5.50;5.00;;;;;;;25.57;55.46;97511.97;5027651;28;20219;-73
2023/09/13 09:08:53;;;;;;;8.40;5.57;;;;;;;25.57;55.72;97518.16;5022763;28;20534;-73
2023/09/13 09:11:21;;;;;;;8.87;6.93;;;;;;;25.60;55.50;97514.97;5021782;28;20187;-72
2023/09/13 09:13:47;;;;;;;6.13;5.53;;;;;;;25.62;55.43;97522.81;5013379;28;20191;-73
2023/09/13 09:16:13;;;;;;;6.07;5.43;;;;;;;25.63;56.01;97523.59;5032035;28;20844;-75
2023/09/13 09:18:39;;;;;;;4.63;4.23;;;;;;;25.65;56.25;97527.66;5019302;28;20289;-74
2023/09/13 09:21:04;;;;;;;4.53;4.13;;;;;;;25.61;56.44;97529.22;5013939;28;20187;-73
2023/09/13 09:23:31;;;;;;;4.33;3.93;;;;;;;25.57;56.64;97533.44;5042037;28;20179;-74
2023/09/13 09:25:56;;;;;;;4.17;3.87;;;;;;;25.51;56.27;97524.47;5022895;28;20207;-73
2023/09/13 09:28:23;;;;;;;3.50;3.20;;;;;;;25.52;55.67;97536.03;5043277;28;20510;-73
2023/09/13 09:30:51;;;;;;;3.47;3.17;;;;;;;25.49;55.95;97542.69;5044682;28;20192;-73
2023/09/13 09:33:26;;;;;;;3.83;3.13;;;;;;;25.50;56.03;97547.00;5044349;28;20425;-75
2023/09/13 09:35:57;;;;;;;4.17;3.70;;;;;;;25.54;56.07;97542.78;5023255;28;20956;-73
2023/09/13 09:38:24;;;;;;;6.60;3.93;;;;;;;25.58;55.68;97546.59;5045102;28;20500;-73
2023/09/13 09:40:50;;;;;;;4.00;3.60;;;;;;;25.61;56.09;97551.47;5036078;28;20862;-74
2023/09/13 09:43:15;;;;;;;7.10;3.90;;;;;;;25.57;56.45;97553.03;5033692;28;20514;-73
2023/09/13 09:45:41;;;;;;;3.83;3.53;;;;;;;25.61;56.45;97548.81;5038468;28;20245;-72
2023/09/13 09:48:07;;;;;;;3.93;3.43;;;;;;;25.64;56.19;97549.38;5042876;28;20753;-74
2023/09/13 09:50:33;;;;;;;8.57;7.67;;;;;;;25.55;55.54;97546.25;5035141;28;20195;-73
2023/09/13 09:52:58;;;;;;;8.07;7.37;;;;;;;25.53;55.15;97549.19;5036952;28;20434;-74
2023/09/13 09:55:25;;;;;;;5.90;5.40;;;;;;;25.52;55.51;97547.56;5012866;28;20191;-73
2023/09/13 09:57:52;;;;;;;6.70;6.10;;;;;;;25.51;55.06;97555.88;5016652;28;20183;-73
2023/09/13 10:00:18;;;;;;;6.93;5.47;;;;;;;25.48;55.44;97556.34;5019718;28;20454;-73
2023/09/13 10:02:44;;;;;;;5.00;3.80;;;;;;;25.39;56.04;97555.88;5032113;28;20434;-72
2023/09/13 10:05:12;;;;;;;6.60;6.00;;;;;;;25.40;56.03;97549.47;5039070;28;20191;-73
2023/09/13 10:07:54;;;;;;;11.93;10.70;;;;;;;25.41;56.25;97556.50;5042851;28;20434;-72
2023/09/13 10:10:35;;;;;;;5.63;5.17;;;;;;;25.39;56.28;97555.88;5030589;28;20923;-71
2023/09/13 10:13:00;;;;;;;12.43;10.93;;;;;;;25.33;56.55;97554.97;5016683;28;20775;-74
2023/09/13 10:15:26;;;;;;;4.40;4.10;;;;;;;25.30;56.39;97560.81;5040955;28;20461;-74
2023/09/13 10:17:53;;;;;;;8.80;8.00;;;;;;;25.30;56.60;97555.44;5011613;28;20741;-74
2023/09/13 10:20:20;;;;;;;6.20;5.70;;;;;;;25.33;57.01;97559.53;5041532;28;20680;-73
2023/09/13 10:22:46;;;;;;;14.23;4.37;;;;;;;25.35;56.75;97562.78;5032394;28;20560;-73
2023/09/13 10:25:14;;;;;;;4.83;3.20;;;;;;;25.33;56.42;97556.84;5027058;28;20469;-72
2023/09/13 10:27:42;;;;;;;4.13;3.80;;;;;;;25.30;56.30;97555.44;5012400;28;20430;-73
2023/09/13 10:30:10;;;;;;;4.90;4.47;;;;;;;25.34;56.00;97550.41;5030670;28;20493;-73
2023/09/13 10:32:47;;;;;;;23.37;20.80;;;;;;;25.43;56.37;97549.81;5030399;28;21086;-73
2023/09/13 10:35:13;;;;;;;8.60;6.30;;;;;;;25.49;55.38;97542.69;5026201;28;20919;-73
2023/09/13 10:37:43;;;;;;;8.07;6.67;;;;;;;25.54;55.66;97541.94;5021753;28;20549;-74
2023/09/13 10:40:22;;;;;;;4.50;4.00;;;;;;;25.54;55.02;97540.09;5020918;28;20476;-73
2023/09/13 10:42:48;;;;;;;5.57;5.03;;;;;;;25.60;54.58;97543.69;5016393;28;20434;-73
2023/09/13 10:45:18;;;;;;;5.23;4.83;;;;;;;25.63;54.96;97556.63;5023253;28;20425;-73
2023/09/13 10:47:45;;;;;;;13.90;11.50;;;;;;;25.68;55.01;97543.28;5035502;28;20445;-73
2023/09/13 10:50:12;;;;;;;11.93;10.17;;;;;;;25.68;54.53;97550.53;5016938;28;22391;-74
2023/09/13 10:52:38;;;;;;;11.10;10.00;;;;;;;25.69;54.36;97546.81;4999350;28;20434;-74
2023/09/13 10:55:05;;;;;;;13.93;9.83;;;;;;;25.77;54.08;97549.06;5011143;28;20431;-73
2023/09/13 10:57:31;;;;;;;10.67;8.80;;;;;;;25.81;53.93;97544.03;5018631;28;20184;-73
2023/09/13 10:59:58;;;;;;;4.17;3.87;;;;;;;25.85;53.42;97542.50;5033838;28;20467;-73
2023/09/13 11:02:24;;;;;;;5.27;4.87;;;;;;;25.89;53.30;97538.28;5033922;28;20922;-74
2023/09/13 11:04:50;;;;;;;5.03;4.47;;;;;;;25.97;53.01;97542.41;5020654;28;20476;-73
2023/09/13 11:07:16;;;;;;;5.20;4.63;;;;;;;26.09;52.79;97542.34;5016921;28;20687;-72
2023/09/13 11:09:42;;;;;;;10.33;6.10;;;;;;;26.19;53.01;97540.66;5030709;28;20465;-73
2023/09/13 11:12:11;;;;;;;10.93;7.07;;;;;;;26.34;52.91;97537.38;5036883;28;20286;-73
2023/09/13 11:14:36;;;;;;;7.53;6.23;;;;;;;26.47;52.72;97538.88;5038953;28;20425;-73
2023/09/13 11:17:09;;;;;;;6.63;4.10;;;;;;;26.58;51.74;97541.75;5038701;28;20465;-73
2023/09/13 11:19:35;;;;;;;6.53;4.50;;;;;;;26.61;51.79;97542.06;5039738;28;20222;-73
2023/09/13 11:22:02;;;;;;;7.67;4.47;;;;;;;26.67;51.68;97546.41;5016430;28;20434;-74
2023/09/13 11:24:41;;;;;;;4.80;4.27;;;;;;;26.70;50.75;97545.13;5030984;28;20198;-73
2023/09/13 11:27:16;;;;;;;5.13;4.63;;;;;;;26.77;50.59;97551.13;5032461;28;20538;-73
2023/09/13 11:29:46;;;;;;;5.10;3.97;;;;;;;26.83;50.44;97541.28;5033592;28;20485;-73